Immagine casuale
Testata Regione Lazio ARSIAL SIARL

Ultima Misura Rilevata

Temperatura, Umidità, Pioggia, Pressione Radiazione Solare, Venti, Evapotraspirazione, ecc.
Temperature diurne e notturne Direzione vento Legenda
Prov Stazione Data TMin TMed TMax UMed Pioggia PMed
FR ALATRI Basciano 18/07/2019 17,9 22,8 34 71 4,6 1.014
FR ALVITO Az. Ist. S. Benedetto 18/07/2019 12,9 20,6 29,8 75 2,6 1.012
FR ANAGNI La Gloria 18/07/2019 14,6 23 32,4 66 0 1.011
FR ARPINO Vigne Piane 18/07/2019 17,6 22,2 31,3 64 0,8 1.014
FR BOVILLE ERNICA Sasso 18/07/2019 17,3 24 33,2 62 0,2 1.013
FR CECCANO C.da Passo del Cardinale 18/07/2019 13,1 22,7 30,6 73 0 ----
FR ESPERIA Modale 18/07/2019 14,9 22,9 32,8 69 0 1.013
FR PASTENA Acero 18/07/2019 12,2 22,4 31,1 69 0 1.016
FR PIGLIO Civitella 18/07/2019 14,7 22,7 32,5 64 0 1.011
FR PONTECORVO Melfi di Sotto 18/07/2019 N.D. N.D. N.D. N.D. N.D. ----
FR S. ELIA FIUMERAPIDO Portella 18/07/2019 16,6 22,8 31,6 71 2 1.012
FR S. GIORGIO A LIRI Porto 18/07/2019 13,9 23,1 32,1 74 0 1.011
FR SGURGOLA Campo Lungo 18/07/2019 14,1 23,6 33,1 67 0 ----
FR VALLECORSA Serbatoio comunale 18/07/2019 17,9 21,9 27,4 67 0 1.013
LT APRILIA Le Ferriere 18/07/2019 16,3 23,5 30,1 70 0 1.012
LT CISTERNA B.go Carso 18/07/2019 14,4 22,3 28,3 75 0 ----
LT CISTERNA Doganella di Ninfa 18/07/2019 15,7 24,2 32,8 63 0 1.012
LT CORI Portone 18/07/2019 17,7 24,4 31,6 60 0 1.012
LT FONDI Capratica 18/07/2019 16,7 24 30,3 75 0 1.012
LT FORMIA Loc. Gianola 18/07/2019 15,5 23,2 28,6 72 0 ----
LT ITRI Valle Quercia 18/07/2019 18,8 23 28,3 69 0 1.010
LT MAENZA Casacotta 18/07/2019 17,4 24,4 31,1 65 0 1.014
LT MINTURNO Pulcherini 18/07/2019 19,8 24,1 28,7 71 0 1.012
LT PONTINIA Cotarda 18/07/2019 13,1 23,1 31,7 79 0 1.013
LT SABAUDIA Acquaviva 18/07/2019 15,9 23 29,2 75 0 1.012
LT SONNINO Frasso 18/07/2019 20,2 25,4 31,9 68 0 1.012
RI ACCUMOLI Terracino 18/07/2019 13,4 18,2 23,4 72 0,4 1.012
RI BORGOVELINO Ponte Basso 18/07/2019 12,9 21,4 31,5 71 0 1.013
RI CANTALUPO S. Francesco 18/07/2019 14,4 23,2 31,5 62 0 ----
RI CASTEL DI TORA Monte di Tora 18/07/2019 13,1 21 31,2 68 0 1.014
RI CASTELNUOVO FARFA C. Spadone 18/07/2019 17,9 24,6 32,7 58 0 ----
RI CONFIGNI Portella 18/07/2019 16,8 23,5 32 55 0 1.015
RI FARA SABINA Canneto 18/07/2019 18,5 24,9 32,9 54 0 1.008
RI FARA SABINA Sant'Andrea 18/07/2019 18,1 24,7 32,5 54 0 ----
RI MONTELEONE S. Prato Camino 18/07/2019 14,3 22,6 32,4 61 0 1.015
RI MONTOPOLI IN SABINA Colle Arcone 18/07/2019 16,1 23,8 31,3 68 0 ----
RI MONTOPOLI IN SABINA Villa Caprola 18/07/2019 17,4 25,6 34,3 73 0 ----
RI POGGIO CATINO Pastine 18/07/2019 17,3 24 31,6 54 0 ----
RI POGGIO NATIVO Casali 18/07/2019 16,9 23 29,9 63 0 ----
RI RIETI Piana di Rieti 18/07/2019 12,6 23,4 32,5 55 0 1.013
RI SCANDRIGLIA Ponticelli 18/07/2019 17,2 23 29,7 63 0 ----
RM AGOSTA La Cisterna 18/07/2019 13,5 21,6 32,8 68 0 1.012
RM BRACCIANO Prato Pianciano 18/07/2019 15,3 23,9 33,7 63 0 1.013
RM CANALE MONTERANO Monte Virginio 18/07/2019 11,7 21 32,5 69 0 1.013
RM CERVETERI Campo di Mare 18/07/2019 17,2 23,4 28,3 66 0 ----
RM CIVITELLA S.PAOLO Le Cese 18/07/2019 15,1 23,8 32,6 64 0 1.014
RM FIUMICINO Maccarese 18/07/2019 15,8 23,2 29,1 78 0 1.012
RM FIUMICINO Testa di Lepre 18/07/2019 17,9 24,7 31,8 62 0 ----
RM FORMELLO Perazzeta 18/07/2019 17,5 24,2 31,6 64 0 ----
RM FRASCATI Prata Porci 18/07/2019 14,8 23,8 32,3 59 0 1.013
RM GENAZZANO Coop. La Sonnina 18/07/2019 15 23,2 30,6 59 0 1.012
RM GROTTAFERRATA Valle Marciana 18/07/2019 17,7 23,6 30,9 57 0 1.011
RM LADISPOLI Palo Laziale 18/07/2019 17,2 23,1 27,4 74 0 1.012
RM LICENZA Colle Franco 18/07/2019 13,8 21,6 32 64 0 1.013
RM MARCELLINA V. Campetella 18/07/2019 16,5 24,1 31,7 61 0 ----
RM MARINO Gotto d'Oro 18/07/2019 17,2 24,4 30,3 62 0 1.013
RM MONTECOMPATRI Colle Mattia 18/07/2019 16,2 23,7 32,4 59 0 1.012
RM MONTECOMPATRI Pantano Borghese 18/07/2019 13,5 23,9 34,1 63 0 1.011
RM MONTELIBRETTI Bruciati 18/07/2019 14,8 24,1 33,6 59 0 ----
RM MONTEPORZIO Camaldoli 18/07/2019 15 21 28,3 62 0 1.013
RM MONTEROTONDO Grotta Marozza 18/07/2019 16,4 24,7 33,5 56 0 1.013
RM PALOMBARA Fonte Grande 18/07/2019 13,8 23,2 32,4 55 0 ----
RM ROMA Capocotta 18/07/2019 N.D. N.D. N.D. N.D. N.D. ----
RM ROMA Ponte di Nona 18/07/2019 15,9 23,4 30,8 61 0 1.012
RM ROMA Via Lanciani 38 18/07/2019 20,5 26 30,9 55 0 1.011
RM S. GREGORIO C. Faustiniano 18/07/2019 17,2 23,9 33,2 57 0 1.011
RM VELLETRI Cantina Sperimentale 18/07/2019 16,7 22,9 31,1 61 0 1.013
RM VELLETRI Prato Lungo 18/07/2019 16,9 23,6 29,6 59 0 ----
RM ZAGAROLO Santa Apollara 18/07/2019 18,3 24,3 31,3 58 0 ----
VT ACQUAPENDENTE Falconiera 18/07/2019 12,1 22,4 33,1 54 0 1.014
VT BAGNOREGIO Castell Cellesi 18/07/2019 16,6 23,1 29,7 57 0 ----
VT BASSANO R. Piano Mola 18/07/2019 16,4 22,7 31,6 63 0 1.014
VT BLERA Puntoni 18/07/2019 15,3 22,9 29,8 60 0 1.011
VT BOLSENA Capone 18/07/2019 15,2 24,3 35,1 57 0 1.009
VT BOLSENA Rentica 18/07/2019 14,9 22,7 29,5 58 0 ----
VT CANINO Diga Timone 18/07/2019 14,4 22,8 32 62 0 1.014
VT CANINO Pianacce 18/07/2019 13,9 22,9 30,5 61 0 1.012
VT CANINO San Valeriano 18/07/2019 17,8 24,2 29,9 51 0 ----
VT CELLENO Acquaforte 18/07/2019 14,6 22,7 29,9 66 0 ----
VT CORCHIANO Pantalone 18/07/2019 13,3 22,8 33,1 67 0 1.015
VT FARNESE Gressa 18/07/2019 14,1 22 29,1 48 0 ----
VT FARNESE Pian di Sala 18/07/2019 10,1 20,5 31,1 68 0 ----
VT GROTTE DI CASTRO Borghetto 18/07/2019 14,2 22,7 30 60 0 1.012
VT GROTTE DI CASTRO Purgatorio 18/07/2019 12,3 22,6 32,2 57 0 1.013
VT LATERA Centro Florovivaistico 18/07/2019 10 21,5 33,5 63 0 1.015
VT MONTALTO Le Murelle 18/07/2019 16,7 23,1 28,4 73 0 1.012
VT MONTALTO Pescia Romana 18/07/2019 15,4 24 31 60 0 1.012
VT MONTEFIASCONE Commenda 18/07/2019 16,3 23,5 31,6 62 0 ----
VT RONCIGLIONE Ponterotto 18/07/2019 14,2 22,5 30,2 59 0 ----
VT SORIANO CIMINO Pantane 18/07/2019 11,5 21,8 31,9 67 0 1.013
VT SORIANO CIMINO Poggio di Chia 18/07/2019 13,3 22,1 30,2 68 0 ----
VT TARQUINIA Portaccia 18/07/2019 16,5 23,7 29,4 71 0 ----
VT TUSCANIA Montebello 18/07/2019 17,4 24,6 30,7 63 0 ----
VT VETRALLA Marchionato 18/07/2019 15,4 23 29,8 57 0 ----
VT VITERBO Pisello 18/07/2019 16,4 23,4 30,3 58 0 ----
N.D. = Dati Non Disponibili
---- = Sensore non presente

Le misure esposte sono grezze, ovvero non sono state validate.